Time;durP1;ratioP1;P1;durP2;ratioP2;P2;SDS_P1;SDS_P2;PMS_P1;PMS_P2;Temp;Humidity;BMP_temperature;BMP_pressure;BME280_temperature;BME280_humidity;BME280_pressure;Samples;Min_cycle;Max_cycle;Signal;HPM_P1;HPM_P2
2022/08/08 00:02:14;;;;;;;2.92;2.28;;;17.30;62.60;;;;;;5113497;28;20047;-46
2022/08/08 00:04:45;;;;;;;7.32;2.63;;;17.30;62.80;;;;;;5096684;28;20498;-46
2022/08/08 00:07:36;;;;;;;2.25;2.05;;;17.20;63.00;;;;;;5113266;28;20476;-45
2022/08/08 00:10:16;;;;;;;3.92;2.75;;;17.10;63.30;;;;;;5113392;28;20495;-46
2022/08/08 00:13:01;;;;;;;2.58;2.33;;;17.10;63.50;;;;;;5113193;28;20026;-46
2022/08/08 00:15:30;;;;;;;4.22;2.10;;;17.10;63.70;;;;;;5113243;28;20502;-45
2022/08/08 00:18:25;;;;;;;4.13;2.08;;;17.00;63.80;;;;;;5115173;28;20020;-46
2022/08/08 00:20:53;;;;;;;3.25;1.90;;;17.00;64.00;;;;;;5116287;28;20133;-46
2022/08/08 00:23:44;;;;;;;3.13;2.40;;;16.90;64.30;;;;;;5098559;28;20028;-47
2022/08/08 00:26:17;;;;;;;6.07;3.13;;;16.90;64.60;;;;;;5098942;28;20386;-46
2022/08/08 00:28:51;;;;;;;7.25;2.55;;;16.80;64.90;;;;;;5117109;28;20066;-46
2022/08/08 00:31:35;;;;;;;3.30;2.42;;;16.80;65.10;;;;;;5095006;28;20480;-45
2022/08/08 00:37:32;;;;;;;2.58;2.25;;;16.80;65.20;;;;;;5095648;28;20113;-46
2022/08/08 00:40:28;;;;;;;2.63;2.10;;;16.80;65.50;;;;;;5094116;28;20035;-46
2022/08/08 00:43:18;;;;;;;5.05;2.60;;;16.70;65.60;;;;;;5096993;28;20099;-44
2022/08/08 00:45:53;;;;;;;3.65;2.58;;;16.80;65.80;;;;;;5096550;28;20107;-46
2022/08/08 00:48:39;;;;;;;4.70;2.50;;;16.70;65.90;;;;;;5096511;28;20472;-45
2022/08/08 00:51:11;;;;;;;3.60;2.55;;;16.60;66.00;;;;;;5096230;28;20370;-46
2022/08/08 00:54:07;;;;;;;4.80;2.85;;;16.70;66.30;;;;;;5096103;28;20040;-45
2022/08/08 00:57:10;;;;;;;2.45;2.10;;;16.60;66.40;;;;;;5095824;28;20515;-48
2022/08/08 00:59:45;;;;;;;4.35;2.40;;;16.50;66.80;;;;;;5095623;28;20468;-44
2022/08/08 01:02:28;;;;;;;5.10;2.72;;;16.50;66.90;;;;;;5095867;28;20069;-45
2022/08/08 01:05:24;;;;;;;3.80;2.58;;;16.50;67.00;;;;;;5095452;28;20454;-45
2022/08/08 01:07:53;;;;;;;3.30;2.42;;;16.40;67.30;;;;;;5095804;28;20032;-45
2022/08/08 01:10:51;;;;;;;4.63;2.30;;;16.40;67.40;;;;;;5095304;28;20414;-45
2022/08/08 01:13:51;;;;;;;3.60;2.40;;;16.40;67.70;;;;;;5095264;28;20016;-45
2022/08/08 01:16:17;;;;;;;;;;;16.40;67.80;;;;;;5095674;28;20085;-46
2022/08/08 01:19:01;;;;;;;5.13;2.83;;;16.30;68.00;;;;;;5095279;28;20356;-45
2022/08/08 01:21:46;;;;;;;4.72;2.90;;;16.30;68.30;;;;;;5095257;28;20028;-47
2022/08/08 01:24:39;;;;;;;4.25;2.55;;;16.30;68.40;;;;;;5093834;28;20103;-45
2022/08/08 01:27:39;;;;;;;3.50;2.70;;;16.30;68.80;;;;;;5095340;28;20387;-45
2022/08/08 01:30:39;;;;;;;6.93;2.40;;;16.20;69.00;;;;;;5096194;28;20056;-44
2022/08/08 01:33:38;;;;;;;3.33;2.53;;;16.10;69.40;;;;;;5115538;28;20028;-46
2022/08/08 01:36:13;;;;;;;3.72;2.60;;;16.10;69.60;;;;;;5115734;28;20047;-44
2022/08/08 01:39:00;;;;;;;4.00;2.60;;;16.10;69.70;;;;;;5115573;28;20073;-44
2022/08/08 01:41:52;;;;;;;5.95;2.67;;;16.00;69.90;;;;;;5115314;28;20030;-45
2022/08/08 01:44:41;;;;;;;3.33;2.88;;;16.00;70.00;;;;;;5063415;28;20028;-46
2022/08/08 01:47:38;;;;;;;3.95;2.85;;;16.00;70.10;;;;;;5115403;28;20036;-44
2022/08/08 01:50:30;;;;;;;6.00;2.95;;;15.90;70.30;;;;;;5101589;28;20436;-45
2022/08/08 01:53:10;;;;;;;4.35;2.80;;;15.90;70.60;;;;;;5115546;28;20035;-44
2022/08/08 01:56:17;;;;;;;4.30;2.92;;;15.80;70.80;;;;;;5115348;28;20016;-44
2022/08/08 01:59:18;;;;;;;5.38;3.13;;;15.80;70.80;;;;;;5115451;28;20024;-45
2022/08/08 02:01:50;;;;;;;3.70;3.03;;;15.80;71.10;;;;;;5115062;28;20031;-45
2022/08/08 02:04:38;;;;;;;3.85;2.88;;;15.80;71.30;;;;;;5115498;28;20027;-46
2022/08/08 02:07:09;;;;;;;4.35;2.80;;;15.80;71.40;;;;;;5097417;28;20387;-45
2022/08/08 02:09:56;;;;;;;3.78;2.88;;;15.80;71.50;;;;;;5114789;28;20039;-45
2022/08/08 02:12:33;;;;;;;4.50;2.92;;;15.70;71.60;;;;;;5114742;28;20035;-45
2022/08/08 02:15:08;;;;;;;5.28;3.08;;;15.70;71.80;;;;;;5096366;28;20016;-44
2022/08/08 02:18:20;;;;;;;4.00;2.83;;;15.70;72.00;;;;;;5115148;28;20479;-45
2022/08/08 02:24:26;;;;;;;5.32;3.03;;;15.60;72.30;;;;;;5108225;28;20073;-46
2022/08/08 02:27:13;;;;;;;4.88;2.90;;;15.60;72.30;;;;;;5085188;28;20032;-46
2022/08/08 02:30:01;;;;;;;11.45;3.83;;;15.60;72.40;;;;;;5114780;28;20383;-45
2022/08/08 02:32:38;;;;;;;4.45;3.40;;;15.60;72.70;;;;;;5075539;28;20044;-45
2022/08/08 02:35:32;;;;;;;4.22;3.38;;;15.50;72.90;;;;;;5073851;28;20021;-45
2022/08/08 02:38:12;;;;;;;6.65;3.53;;;15.50;73.20;;;;;;5074105;28;20021;-45
2022/08/08 02:41:01;;;;;;;12.18;3.60;;;15.40;73.40;;;;;;5072919;28;20550;-45
2022/08/08 02:43:45;;;;;;;4.40;2.97;;;15.40;73.40;;;;;;5073739;28;20042;-46
2022/08/08 02:46:35;;;;;;;4.03;3.00;;;15.40;73.70;;;;;;5073360;28;20028;-46
2022/08/08 02:49:31;;;;;;;5.15;3.35;;;15.30;73.90;;;;;;5073362;28;20346;-45
2022/08/08 02:52:16;;;;;;;7.18;4.07;;;15.30;74.20;;;;;;5071971;28;20388;-45
2022/08/08 02:54:59;;;;;;;5.18;4.00;;;15.30;74.30;;;;;;5073299;28;20056;-45
2022/08/08 02:58:00;;;;;;;9.65;3.65;;;15.30;74.60;;;;;;5073297;28;20020;-46
2022/08/08 03:00:31;;;;;;;;;;;15.30;74.50;;;;;;5057827;28;20035;-46
2022/08/08 03:03:06;;;;;;;6.65;4.05;;;15.20;74.70;;;;;;5073098;28;20283;-46
2022/08/08 03:06:04;;;;;;;4.57;3.45;;;15.20;75.00;;;;;;5073587;28;20028;-46
2022/08/08 03:09:08;;;;;;;8.38;4.20;;;15.20;75.10;;;;;;5071948;28;20499;-46
2022/08/08 03:11:57;;;;;;;5.30;4.18;;;15.10;75.40;;;;;;5030984;28;20043;-44
2022/08/08 03:14:26;;;;;;;5.53;3.80;;;15.10;75.50;;;;;;5071329;28;20373;-46
2022/08/08 03:16:58;;;;;;;8.70;4.47;;;15.10;75.70;;;;;;5073341;28;20032;-46
2022/08/08 03:19:55;;;;;;;8.90;4.15;;;15.10;75.90;;;;;;5073051;28;20357;-45
2022/08/08 03:22:21;;;;;;;16.40;4.60;;;15.00;76.10;;;;;;5072728;28;20078;-45
2022/08/08 03:24:50;;;;;;;6.80;4.07;;;14.90;76.30;;;;;;5072837;28;20469;-45
2022/08/08 03:27:19;;;;;;;4.18;3.78;;;14.90;76.50;;;;;;5072997;28;20056;-45
2022/08/08 03:29:50;;;;;;;8.60;4.75;;;14.90;76.60;;;;;;5072824;28;20020;-46
2022/08/08 03:35:04;;;;;;;5.72;4.63;;;14.80;77.00;;;;;;5113913;28;20046;-46
2022/08/08 03:37:33;;;;;;;6.00;4.03;;;14.80;77.20;;;;;;5113221;28;20042;-45
2022/08/08 03:40:04;;;;;;;6.90;5.15;;;14.80;77.40;;;;;;5112989;28;20015;-46
2022/08/08 03:42:30;;;;;;;11.35;5.00;;;14.80;77.40;;;;;;5112919;28;20037;-45
2022/08/08 03:44:56;;;;;;;6.40;4.50;;;14.80;77.40;;;;;;5113028;28;20036;-45
2022/08/08 19:31:05;;;;;;;7.50;2.10;;;22.10;51.50;;;;;;5131921;27;20403;-46
2022/08/08 19:33:31;;;;;;;2.88;1.60;;;22.10;51.70;;;;;;5131619;27;20079;-47
2022/08/08 19:35:57;;;;;;;2.20;1.90;;;22.10;51.70;;;;;;5131240;27;20023;-45
2022/08/08 19:38:22;;;;;;;3.10;2.45;;;22.10;51.80;;;;;;5131191;28;20016;-46
2022/08/08 19:40:49;;;;;;;2.80;1.73;;;22.10;51.90;;;;;;5129986;28;20032;-47
2022/08/08 19:43:15;;;;;;;4.15;2.20;;;22.00;52.00;;;;;;5131680;27;20053;-46
2022/08/08 19:45:40;;;;;;;3.60;2.38;;;22.00;52.20;;;;;;5130382;28;20024;-48
2022/08/08 19:48:06;;;;;;;8.52;1.98;;;22.00;52.30;;;;;;5129732;28;20036;-46
2022/08/08 19:50:33;;;;;;;1.80;1.60;;;21.90;52.40;;;;;;5130155;28;20114;-47
2022/08/08 19:52:58;;;;;;;6.40;2.05;;;21.80;52.60;;;;;;5131959;27;20051;-47
2022/08/08 19:55:24;;;;;;;2.63;1.98;;;21.80;52.70;;;;;;5131330;27;20513;-46
2022/08/08 19:57:50;;;;;;;2.45;1.75;;;21.70;52.90;;;;;;5130879;27;20030;-46
2022/08/08 20:00:18;;;;;;;3.75;1.65;;;21.70;53.10;;;;;;5131108;27;20062;-46
2022/08/08 20:02:47;;;;;;;3.67;1.40;;;21.60;53.10;;;;;;5130959;27;20031;-45
2022/08/08 20:05:13;;;;;;;3.35;1.85;;;21.50;53.20;;;;;;5131411;27;20482;-47
2022/08/08 20:07:39;;;;;;;3.35;1.90;;;21.50;53.30;;;;;;5129159;28;20028;-47
2022/08/08 20:10:06;;;;;;;2.40;1.83;;;21.40;53.50;;;;;;5130111;28;20384;-46
2022/08/08 20:12:32;;;;;;;8.90;2.00;;;21.40;53.60;;;;;;5134010;27;20115;-45
2022/08/08 20:14:58;;;;;;;4.15;1.80;;;21.30;53.90;;;;;;5129795;28;20023;-47
2022/08/08 20:17:24;;;;;;;4.97;1.75;;;21.30;54.10;;;;;;5130955;27;20387;-44
2022/08/08 20:19:51;;;;;;;2.53;1.73;;;21.20;54.20;;;;;;5130715;27;20023;-45
2022/08/08 20:22:17;;;;;;;3.40;1.95;;;21.20;54.40;;;;;;5130391;27;20045;-45
2022/08/08 20:24:42;;;;;;;5.80;1.73;;;21.10;54.70;;;;;;5130200;27;20055;-52
2022/08/08 20:27:08;;;;;;;5.07;2.53;;;21.10;54.80;;;;;;5129988;27;20059;-47
2022/08/08 20:29:34;;;;;;;1.75;1.50;;;21.10;55.00;;;;;;5130071;27;20122;-45
2022/08/08 20:32:01;;;;;;;3.15;1.77;;;21.00;55.20;;;;;;5128643;28;20027;-47
2022/08/08 20:34:28;;;;;;;3.53;1.60;;;21.00;55.40;;;;;;5128654;28;20023;-46
2022/08/08 20:36:53;;;;;;;4.32;1.77;;;20.90;55.60;;;;;;5130210;27;20078;-45
2022/08/08 20:39:19;;;;;;;2.47;2.22;;;20.80;55.90;;;;;;5129819;27;20055;-45
2022/08/08 20:41:45;;;;;;;4.05;2.35;;;20.80;56.10;;;;;;5120129;27;20103;-45
2022/08/08 20:44:11;;;;;;;2.72;1.60;;;20.80;56.40;;;;;;5116342;28;20100;-45
2022/08/08 20:46:37;;;;;;;2.47;2.15;;;20.70;56.70;;;;;;5116398;28;20043;-47
2022/08/08 20:49:03;;;;;;;3.70;1.90;;;20.70;56.90;;;;;;5116672;28;20444;-46
2022/08/08 20:51:28;;;;;;;6.05;1.52;;;20.60;57.20;;;;;;5116151;28;20032;-46
2022/08/08 20:53:55;;;;;;;3.90;1.85;;;20.60;57.40;;;;;;5114853;28;20024;-46
2022/08/08 20:56:21;;;;;;;2.80;1.88;;;20.50;57.70;;;;;;5116410;28;20024;-46
2022/08/08 20:58:47;;;;;;;4.93;2.25;;;20.40;57.90;;;;;;5116213;28;20034;-46
2022/08/08 21:01:13;;;;;;;7.05;1.70;;;20.40;58.10;;;;;;5116160;28;20019;-46
2022/08/08 21:03:39;;;;;;;1.80;1.50;;;20.40;58.20;;;;;;5116315;28;20494;-48
2022/08/08 21:06:05;;;;;;;1.83;1.20;;;20.30;58.50;;;;;;5116125;28;20024;-47
2022/08/08 21:08:31;;;;;;;4.97;1.52;;;20.30;58.70;;;;;;5114672;28;20122;-46
2022/08/08 21:10:57;;;;;;;6.35;1.70;;;20.20;59.10;;;;;;5115518;28;20106;-47
2022/08/08 21:13:22;;;;;;;1.70;1.52;;;20.20;59.20;;;;;;5115529;28;20033;-47
2022/08/08 21:15:48;;;;;;;1.58;1.30;;;20.20;59.50;;;;;;5114162;28;20087;-46
2022/08/08 21:18:14;;;;;;;4.70;1.40;;;20.10;59.70;;;;;;5115838;27;20019;-47
2022/08/08 21:20:40;;;;;;;4.68;2.25;;;20.10;60.00;;;;;;5116187;28;20431;-47
2022/08/08 21:23:07;;;;;;;1.60;1.33;;;20.10;60.20;;;;;;5115831;28;20031;-47
2022/08/08 21:25:33;;;;;;;1.95;1.58;;;20.10;60.40;;;;;;5118053;28;20031;-46
2022/08/08 21:27:59;;;;;;;3.15;1.67;;;20.10;60.60;;;;;;5115634;28;20020;-44
2022/08/08 21:30:24;;;;;;;2.72;1.50;;;20.00;60.90;;;;;;5113430;28;20036;-45
2022/08/08 21:32:50;;;;;;;3.35;1.45;;;20.00;61.00;;;;;;5115420;28;20023;-46
2022/08/08 21:35:16;;;;;;;2.55;1.42;;;20.00;61.10;;;;;;5115357;28;20026;-47
2022/08/08 21:37:41;;;;;;;2.00;1.80;;;19.90;61.30;;;;;;5115116;28;20111;-46
2022/08/08 21:40:08;;;;;;;6.95;1.48;;;19.90;61.50;;;;;;5115617;28;20486;-45
2022/08/08 21:42:33;;;;;;;2.58;1.30;;;19.80;61.60;;;;;;5115190;28;20020;-48
2022/08/08 21:44:59;;;;;;;4.15;2.80;;;19.80;61.80;;;;;;5115523;28;20504;-46
2022/08/08 21:47:25;;;;;;;2.88;1.98;;;19.80;62.10;;;;;;5114912;28;20525;-46
2022/08/08 21:49:51;;;;;;;3.47;1.42;;;19.80;62.20;;;;;;5114872;28;20506;-45
2022/08/08 21:52:16;;;;;;;3.40;1.50;;;19.80;62.20;;;;;;5114448;27;20032;-46
2022/08/08 21:54:42;;;;;;;6.93;1.70;;;19.70;62.50;;;;;;5115131;28;20493;-45
2022/08/08 21:57:08;;;;;;;3.42;1.48;;;19.70;62.70;;;;;;5114886;28;20471;-45
2022/08/08 21:59:34;;;;;;;1.83;1.63;;;19.60;62.90;;;;;;5114901;27;20035;-45
2022/08/08 22:02:00;;;;;;;3.03;1.55;;;19.60;63.10;;;;;;5115201;28;20347;-47
2022/08/08 22:04:25;;;;;;;6.20;1.67;;;19.50;63.20;;;;;;5114930;28;20031;-46
2022/08/08 22:06:51;;;;;;;3.42;1.55;;;19.50;63.40;;;;;;5114762;28;20034;-46
2022/08/08 22:09:17;;;;;;;8.80;1.80;;;19.50;63.50;;;;;;5114958;28;20471;-46
2022/08/08 22:11:43;;;;;;;5.55;1.50;;;19.50;63.60;;;;;;5115041;28;20023;-45
2022/08/08 22:14:08;;;;;;;3.17;1.77;;;19.50;63.80;;;;;;5114693;28;20016;-46
2022/08/08 22:16:34;;;;;;;4.85;2.03;;;19.40;64.00;;;;;;5113452;28;20023;-45
2022/08/08 22:19:00;;;;;;;1.88;1.27;;;19.40;64.20;;;;;;5114973;28;20111;-45
2022/08/08 22:21:25;;;;;;;3.70;1.60;;;19.30;64.30;;;;;;5114568;28;20011;-45
2022/08/08 22:23:51;;;;;;;18.75;2.35;;;19.30;64.40;;;;;;5114468;28;20031;-45
2022/08/08 22:26:20;;;;;;;4.68;1.60;;;19.30;64.70;;;;;;5114859;28;20110;-46
2022/08/08 22:28:46;;;;;;;5.75;1.70;;;19.30;64.90;;;;;;5113059;28;20020;-46
2022/08/08 22:31:11;;;;;;;2.40;1.70;;;19.20;64.90;;;;;;5114189;28;20048;-50
2022/08/08 22:33:37;;;;;;;7.05;1.92;;;19.20;65.20;;;;;;5114587;28;20027;-46
2022/08/08 22:36:03;;;;;;;2.33;1.73;;;19.20;65.30;;;;;;5114593;27;20065;-46
2022/08/08 22:38:29;;;;;;;3.38;1.52;;;19.20;65.40;;;;;;5113912;28;20416;-46
2022/08/08 22:40:54;;;;;;;3.53;1.45;;;19.10;65.50;;;;;;5114174;28;20024;-46
2022/08/08 22:43:20;;;;;;;4.00;1.58;;;19.10;65.60;;;;;;5114779;28;20157;-46
2022/08/08 22:45:46;;;;;;;3.00;1.67;;;19.10;65.80;;;;;;5114471;28;20103;-47
2022/08/08 22:48:11;;;;;;;2.45;1.70;;;19.00;66.00;;;;;;5114145;28;20034;-45
2022/08/08 22:50:37;;;;;;;4.25;1.73;;;19.00;66.10;;;;;;5112668;28;20043;-45
2022/08/08 22:53:06;;;;;;;2.65;1.70;;;19.00;66.30;;;;;;5114372;28;20113;-46
2022/08/08 22:55:31;;;;;;;4.10;1.52;;;18.90;66.40;;;;;;5114860;28;20024;-44
2022/08/08 22:57:57;;;;;;;1.63;1.50;;;18.90;66.60;;;;;;5114242;28;20394;-46
2022/08/08 23:00:23;;;;;;;5.28;1.92;;;18.80;66.90;;;;;;5113975;28;20028;-46
2022/08/08 23:02:49;;;;;;;6.82;2.30;;;18.80;67.00;;;;;;5114228;27;20027;-45
2022/08/08 23:05:14;;;;;;;5.32;1.95;;;18.80;67.10;;;;;;5113663;28;20031;-46
2022/08/08 23:07:40;;;;;;;3.97;1.50;;;18.80;67.30;;;;;;5114034;28;20024;-46
2022/08/08 23:10:08;;;;;;;3.22;2.03;;;18.80;67.30;;;;;;5113809;28;20027;-46
2022/08/08 23:12:34;;;;;;;2.50;1.90;;;18.70;67.50;;;;;;5114071;28;20494;-45
2022/08/08 23:15:00;;;;;;;3.47;2.00;;;18.70;67.60;;;;;;5114032;28;20153;-45
2022/08/08 23:17:26;;;;;;;3.88;1.80;;;18.70;67.60;;;;;;5113713;28;20024;-45
2022/08/08 23:19:52;;;;;;;6.50;2.00;;;18.70;67.70;;;;;;5113786;28;20038;-46
2022/08/08 23:22:18;;;;;;;5.13;1.58;;;18.60;67.80;;;;;;5116296;28;20387;-50
2022/08/08 23:24:45;;;;;;;4.00;1.95;;;18.60;67.90;;;;;;5116936;28;20027;-46
2022/08/08 23:27:12;;;;;;;3.17;2.45;;;18.60;68.00;;;;;;5113668;28;20023;-49
2022/08/08 23:29:38;;;;;;;2.30;1.73;;;18.60;68.20;;;;;;5113232;28;20044;-45
2022/08/08 23:32:04;;;;;;;2.35;1.65;;;18.50;68.10;;;;;;5113495;28;20425;-47
2022/08/08 23:34:30;;;;;;;1.48;1.38;;;18.50;68.30;;;;;;5114423;28;20024;-45
2022/08/08 23:36:56;;;;;;;2.45;1.58;;;18.50;68.40;;;;;;5113978;28;20043;-45
2022/08/08 23:39:24;;;;;;;5.93;2.95;;;18.50;68.50;;;;;;5113394;28;20056;-45
2022/08/08 23:41:50;;;;;;;3.85;1.52;;;18.50;68.60;;;;;;5095419;28;20030;-46
2022/08/08 23:44:16;;;;;;;3.17;2.15;;;18.40;68.70;;;;;;5112072;28;20160;-46
2022/08/08 23:46:42;;;;;;;6.22;2.10;;;18.40;68.80;;;;;;5113431;28;20034;-46
2022/08/08 23:49:07;;;;;;;2.03;1.58;;;18.30;69.00;;;;;;5114232;28;20027;-45
2022/08/08 23:51:33;;;;;;;7.72;2.10;;;18.20;69.20;;;;;;5113589;28;20031;-46
2022/08/08 23:53:59;;;;;;;2.30;1.55;;;18.20;69.40;;;;;;5113412;28;20024;-47
2022/08/08 23:56:24;;;;;;;3.25;1.58;;;18.20;69.60;;;;;;5113300;28;20528;-45
2022/08/08 23:58:50;;;;;;;2.65;1.58;;;18.20;69.70;;;;;;5113497;28;20064;-45
